Terminal Aerodrome Forecast
Issued by NWS

Home | Current Version | Previous Version | Text Only | Print | Product List | Glossary On
Versions: 1 2 3 4 5 6 7 8 9 10 11 12 13 14 15 16
000
FTUS44 KCRP 180528
TAFLRD
TAF
KLRD 180528Z 1806/1906 11005KT P6SM FEW025 OVC200
     FM180900 17004KT 6SM BR SCT012 BKN035 OVC100
      TEMPO 1810/1813 3SM BR
     FM181500 14008KT P6SM BKN025 OVC040
     FM182200 09008KT P6SM SCT020=

USA.gov is the U.S. government's official web portal to all federal, state and local government web resources and services.